createdAt,value
2019-02-19T00:00:51.241Z,0.80
2019-02-19T00:03:19.133Z,0.90
2019-02-19T00:05:46.558Z,0.80
2019-02-19T00:08:14.385Z,0.60
2019-02-19T00:10:41.928Z,0.60
2019-02-19T00:13:10.213Z,0.60
2019-02-19T00:15:37.743Z,0.40
2019-02-19T00:18:05.501Z,0.50
2019-02-19T00:20:33.376Z,0.40
2019-02-19T00:23:01.017Z,0.40
2019-02-19T00:25:28.567Z,0.40
2019-02-19T00:27:56.306Z,0.30
2019-02-19T00:30:23.816Z,0.30
2019-02-19T00:32:51.457Z,0.10
2019-02-19T00:35:18.941Z,0.00
2019-02-19T00:37:46.531Z,0.20
2019-02-19T00:40:14.438Z,0.00
2019-02-19T00:42:41.704Z,-0.10
2019-02-19T00:45:16.512Z,-0.10
2019-02-19T00:47:39.494Z,-0.10
2019-02-19T00:50:07.531Z,-0.10
2019-02-19T00:52:35.159Z,0.10
2019-02-19T00:55:03.481Z,0.00
2019-02-19T00:57:31.578Z,-0.20
2019-02-19T00:59:58.723Z,0.00
2019-02-19T01:02:26.607Z,-0.10
2019-02-19T01:04:54.876Z,0.00
2019-02-19T01:07:22.764Z,-0.20
2019-02-19T01:09:50.146Z,-0.20
2019-02-19T01:12:18.179Z,-0.20
2019-02-19T01:14:46.049Z,-0.20
2019-02-19T01:17:14.074Z,-0.20
2019-02-19T01:19:44.794Z,-0.30
2019-02-19T01:22:12.442Z,-0.10
2019-02-19T01:24:40.207Z,-0.20
2019-02-19T01:27:07.706Z,-0.30
2019-02-19T01:29:35.912Z,-0.20
2019-02-19T01:32:03.466Z,-0.20
2019-02-19T01:34:31.734Z,-0.20
2019-02-19T01:36:59.026Z,0.00
2019-02-19T01:39:26.953Z,-0.10
2019-02-19T01:41:54.900Z,0.00
2019-02-19T01:44:22.573Z,-0.20
2019-02-19T01:46:50.483Z,-0.20
2019-02-19T01:49:18.213Z,-0.20
2019-02-19T01:51:46.190Z,-0.20
2019-02-19T01:54:14.390Z,-0.30
2019-02-19T01:56:41.810Z,-0.30
2019-02-19T01:59:09.699Z,-0.40
2019-02-19T02:01:37.169Z,-0.40
2019-02-19T02:04:04.316Z,-0.50
2019-02-19T02:06:31.890Z,-0.40
2019-02-19T02:08:59.049Z,-0.20
2019-02-19T02:11:26.624Z,-0.40
2019-02-19T02:13:54.083Z,-0.40
2019-02-19T02:16:21.448Z,-0.40
2019-02-19T02:18:49.561Z,-0.30
2019-02-19T02:21:17.069Z,-0.40
2019-02-19T02:23:45.296Z,-0.20
2019-02-19T02:26:13.114Z,-0.30
2019-02-19T02:28:40.526Z,-0.30
2019-02-19T02:31:08.134Z,-0.30
2019-02-19T02:33:35.325Z,-0.50
2019-02-19T02:36:02.590Z,-0.40
2019-02-19T02:38:30.268Z,-0.40
2019-02-19T02:40:57.797Z,-0.40
2019-02-19T02:43:24.954Z,-0.50
2019-02-19T02:45:53.789Z,-0.40
2019-02-19T02:48:22.453Z,-0.50
2019-02-19T02:50:49.876Z,-0.50
2019-02-19T02:53:17.266Z,-0.60
2019-02-19T02:55:44.478Z,-0.60
2019-02-19T02:58:12.298Z,-0.60
2019-02-19T03:00:39.680Z,-0.60
2019-02-19T03:03:07.463Z,-0.50
2019-02-19T03:05:37.828Z,-0.30
2019-02-19T03:08:05.577Z,-0.40
2019-02-19T03:10:33.040Z,-0.40
2019-02-19T03:13:00.914Z,-0.20
2019-02-19T03:15:28.206Z,-0.10
2019-02-19T03:17:56.062Z,-0.20
2019-02-19T03:20:23.511Z,-0.20
2019-02-19T03:22:51.154Z,-0.30
2019-02-19T03:25:18.324Z,-0.50
2019-02-19T03:27:45.516Z,-0.50
2019-02-19T03:30:12.854Z,-0.60
2019-02-19T03:32:40.442Z,-0.60
2019-02-19T03:35:07.788Z,-0.60
2019-02-19T03:37:35.494Z,-0.70
2019-02-19T03:40:04.821Z,-0.70
2019-02-19T03:42:33.021Z,-0.60
2019-02-19T03:45:00.742Z,-0.60
2019-02-19T03:47:28.412Z,-0.60
2019-02-19T03:49:56.050Z,-0.50
2019-02-19T03:52:23.912Z,-0.50
2019-02-19T03:54:51.728Z,-0.50
2019-02-19T03:57:19.514Z,-0.40
2019-02-19T03:59:47.470Z,-0.30
2019-02-19T04:02:15.037Z,-0.20
2019-02-19T04:04:42.633Z,-0.10
2019-02-19T04:07:10.692Z,-0.10
2019-02-19T04:09:38.078Z,0.00
2019-02-19T04:12:05.459Z,0.10
2019-02-19T04:14:33.222Z,0.10
2019-02-19T04:17:00.899Z,0.20
2019-02-19T04:19:28.756Z,0.20
2019-02-19T04:21:56.574Z,0.30
2019-02-19T04:24:25.065Z,0.40
2019-02-19T04:26:52.483Z,0.50
2019-02-19T04:29:20.458Z,0.60
2019-02-19T04:31:47.603Z,0.70
2019-02-19T04:34:14.987Z,0.80
2019-02-19T04:36:43.420Z,0.80
2019-02-19T04:39:11.156Z,0.90
2019-02-19T04:41:38.677Z,1.00
2019-02-19T04:44:06.364Z,1.00
2019-02-19T04:46:34.056Z,1.10
2019-02-19T04:49:01.694Z,1.30
2019-02-19T04:51:29.420Z,1.40
2019-02-19T04:53:57.392Z,1.50
2019-02-19T04:56:25.082Z,1.60
2019-02-19T04:58:53.052Z,1.70
2019-02-19T05:01:21.471Z,1.80
2019-02-19T05:03:49.034Z,1.90
2019-02-19T05:06:17.465Z,2.00
2019-02-19T05:08:44.933Z,2.20
2019-02-19T05:11:12.838Z,2.30
2019-02-19T05:13:40.478Z,2.40
2019-02-19T05:16:07.870Z,2.50
2019-02-19T05:18:35.728Z,2.70
2019-02-19T05:21:03.781Z,3.10
2019-02-19T05:23:31.422Z,3.00
2019-02-19T05:25:59.074Z,3.00
2019-02-19T05:28:27.021Z,3.10
2019-02-19T05:30:54.810Z,3.20
2019-02-19T05:33:22.299Z,3.20
2019-02-19T05:35:50.208Z,3.30
2019-02-19T05:38:17.734Z,3.30
2019-02-19T05:40:45.225Z,3.30
2019-02-19T05:43:12.483Z,3.60
2019-02-19T05:45:40.465Z,3.60
2019-02-19T05:48:08.001Z,3.70
2019-02-19T05:50:35.728Z,3.90
2019-02-19T05:53:03.764Z,4.00
2019-02-19T05:55:31.153Z,4.00
2019-02-19T05:58:01.698Z,4.10
2019-02-19T06:00:29.291Z,4.20
2019-02-19T06:02:56.651Z,4.20
2019-02-19T06:05:24.530Z,4.30
2019-02-19T06:07:52.101Z,4.30
2019-02-19T06:10:19.425Z,4.40
2019-02-19T06:12:47.223Z,4.40
2019-02-19T06:15:14.568Z,4.40
2019-02-19T06:17:41.986Z,4.60
2019-02-19T06:20:10.154Z,4.60
2019-02-19T06:22:37.743Z,4.50
2019-02-19T06:25:06.812Z,4.60
2019-02-19T06:27:34.285Z,4.60
2019-02-19T06:30:01.528Z,4.60
2019-02-19T06:32:28.777Z,4.70
2019-02-19T06:34:56.468Z,4.80
2019-02-19T06:37:23.781Z,4.70
2019-02-19T06:39:51.292Z,4.90
2019-02-19T06:42:18.524Z,4.90
2019-02-19T06:44:46.217Z,5.00
2019-02-19T06:47:14.005Z,5.00
2019-02-19T06:49:41.986Z,5.00
2019-02-19T06:52:09.273Z,5.10
2019-02-19T06:54:36.905Z,5.10
2019-02-19T06:57:04.865Z,5.10
2019-02-19T06:59:32.846Z,5.10
2019-02-19T07:02:22.321Z,5.20
2019-02-19T07:04:56.526Z,5.20
2019-02-19T07:07:24.358Z,5.20
2019-02-19T07:09:51.744Z,5.30
2019-02-19T07:12:19.009Z,5.40
2019-02-19T07:14:47.076Z,5.40
2019-02-19T07:17:15.944Z,5.50
2019-02-19T07:19:43.841Z,5.50
2019-02-19T07:22:11.736Z,5.50
2019-02-19T07:24:39.875Z,5.60
2019-02-19T07:27:07.582Z,5.70
2019-02-19T07:29:34.950Z,5.70
2019-02-19T07:32:02.774Z,5.80
2019-02-19T07:34:30.323Z,5.80
2019-02-19T07:36:57.787Z,5.90
2019-02-19T07:39:25.513Z,6.00
2019-02-19T07:41:53.111Z,6.00
2019-02-19T07:44:21.163Z,6.00
2019-02-19T07:46:48.968Z,6.00
2019-02-19T07:49:16.320Z,5.90
2019-02-19T07:51:44.449Z,6.10
2019-02-19T07:54:12.173Z,6.00
2019-02-19T07:56:39.345Z,6.10
2019-02-19T07:59:07.301Z,6.10
2019-02-19T08:01:34.597Z,6.10
2019-02-19T08:04:01.941Z,6.10
2019-02-19T08:06:29.789Z,6.10
2019-02-19T08:08:57.200Z,6.20
2019-02-19T08:11:24.674Z,6.20
2019-02-19T08:13:52.508Z,6.20
2019-02-19T08:16:20.320Z,6.20
2019-02-19T08:18:47.594Z,6.20
2019-02-19T08:21:15.159Z,6.10
2019-02-19T08:23:43.019Z,6.10
2019-02-19T08:26:10.401Z,5.90
2019-02-19T08:28:38.221Z,5.90
2019-02-19T08:31:05.915Z,5.90
2019-02-19T08:33:33.938Z,5.90
2019-02-19T08:36:01.512Z,5.90
2019-02-19T08:38:29.590Z,5.90
2019-02-19T08:40:57.057Z,5.80
2019-02-19T08:43:24.654Z,5.70
2019-02-19T08:45:52.149Z,5.70
2019-02-19T08:48:19.690Z,5.70
2019-02-19T08:50:47.102Z,5.60
2019-02-19T08:53:14.774Z,5.70
2019-02-19T08:55:42.799Z,5.40
2019-02-19T08:58:10.042Z,5.50
2019-02-19T09:00:38.582Z,5.50
2019-02-19T09:03:06.275Z,5.40
2019-02-19T09:05:34.263Z,5.40
2019-02-19T09:08:01.550Z,5.40
2019-02-19T09:10:28.809Z,5.50
2019-02-19T09:12:56.298Z,5.60
2019-02-19T09:15:24.398Z,5.50
2019-02-19T09:17:52.449Z,5.50
2019-02-19T09:20:19.619Z,5.50
2019-02-19T09:22:47.447Z,5.50
2019-02-19T09:25:14.603Z,5.50
2019-02-19T09:27:43.384Z,5.50
2019-02-19T09:30:11.424Z,5.40
2019-02-19T09:32:38.574Z,5.30
2019-02-19T09:35:06.313Z,5.50
2019-02-19T09:37:34.274Z,5.50
2019-02-19T09:40:01.547Z,5.40
2019-02-19T09:42:29.820Z,5.30
2019-02-19T09:44:57.433Z,5.30
2019-02-19T09:47:24.968Z,5.30
2019-02-19T09:49:53.351Z,5.20
2019-02-19T09:52:21.169Z,5.30
2019-02-19T09:54:48.763Z,5.30
2019-02-19T09:57:16.159Z,5.30
2019-02-19T09:59:43.847Z,5.30
2019-02-19T10:02:11.427Z,5.30
2019-02-19T10:04:39.369Z,5.40
2019-02-19T10:07:06.864Z,5.30
2019-02-19T10:09:34.590Z,5.30
2019-02-19T10:12:02.122Z,5.40
2019-02-19T10:14:33.376Z,5.40
2019-02-19T10:17:01.293Z,5.30
2019-02-19T10:19:28.766Z,5.30
2019-02-19T10:21:56.198Z,5.40
2019-02-19T10:24:23.714Z,5.50
2019-02-19T10:26:51.304Z,5.40
2019-02-19T10:29:18.820Z,5.50
2019-02-19T10:31:46.851Z,5.50
2019-02-19T10:34:14.435Z,5.50
2019-02-19T10:36:41.943Z,5.50
2019-02-19T10:39:10.586Z,5.60
2019-02-19T10:41:38.607Z,5.80
2019-02-19T10:44:06.214Z,5.90
2019-02-19T10:46:34.040Z,6.00
2019-02-19T10:49:01.343Z,6.10
2019-02-19T10:51:28.732Z,6.20
2019-02-19T10:53:56.841Z,6.30
2019-02-19T10:56:23.970Z,6.40
2019-02-19T10:58:51.465Z,6.50
2019-02-19T11:01:18.816Z,6.60
2019-02-19T11:03:46.549Z,6.70
2019-02-19T11:06:14.272Z,6.70
2019-02-19T11:08:41.671Z,6.80
2019-02-19T11:11:09.263Z,6.80
2019-02-19T11:13:36.671Z,6.90
2019-02-19T11:16:04.022Z,7.00
2019-02-19T11:18:32.656Z,7.00
2019-02-19T11:21:00.984Z,7.00
2019-02-19T11:23:28.403Z,7.20
2019-02-19T11:25:55.804Z,7.30
2019-02-19T11:28:24.344Z,7.50
2019-02-19T11:30:52.207Z,7.40
2019-02-19T11:33:20.098Z,7.50
2019-02-19T11:35:47.740Z,7.50
2019-02-19T11:38:15.374Z,7.60
2019-02-19T11:40:43.319Z,7.70
2019-02-19T11:43:11.509Z,7.80
2019-02-19T11:45:39.051Z,8.00
2019-02-19T11:48:06.962Z,8.20
2019-02-19T11:50:34.740Z,8.00
2019-02-19T11:53:02.078Z,8.30
2019-02-19T11:55:29.772Z,8.30
2019-02-19T11:57:57.316Z,8.40
2019-02-19T12:00:32.479Z,8.50
2019-02-19T12:02:59.786Z,8.60
2019-02-19T12:05:27.958Z,8.90
2019-02-19T12:07:55.935Z,9.10
2019-02-19T12:10:23.172Z,9.40
2019-02-19T12:12:51.059Z,9.50
2019-02-19T12:15:19.365Z,9.60
2019-02-19T12:17:47.107Z,9.80
2019-02-19T12:20:14.659Z,9.80
2019-02-19T12:22:46.236Z,9.50
2019-02-19T12:25:13.856Z,9.80
2019-02-19T12:27:41.674Z,9.90
2019-02-19T12:30:11.306Z,10.10
2019-02-19T12:32:39.054Z,10.20
2019-02-19T12:35:07.318Z,10.10
2019-02-19T12:37:34.938Z,10.00
2019-02-19T12:40:02.767Z,10.10
2019-02-19T12:42:30.287Z,10.00
2019-02-19T12:44:57.808Z,9.70
2019-02-19T12:47:31.435Z,9.80
2019-02-19T12:49:59.405Z,9.80
2019-02-19T12:52:27.280Z,9.80
2019-02-19T12:54:54.427Z,9.70
2019-02-19T12:57:22.861Z,9.70
2019-02-19T12:59:56.621Z,9.70
2019-02-19T13:02:20.790Z,9.80
2019-02-19T13:04:48.245Z,9.80
2019-02-19T13:07:16.220Z,9.50
2019-02-19T13:09:46.650Z,9.60
2019-02-19T13:12:14.628Z,9.70
2019-02-19T13:14:42.389Z,9.60
2019-02-19T13:17:09.794Z,9.50
2019-02-19T13:19:37.833Z,9.40
2019-02-19T13:22:05.865Z,9.50
2019-02-19T13:24:33.014Z,9.60
2019-02-19T13:27:00.891Z,9.70
2019-02-19T13:29:28.309Z,9.70
2019-02-19T13:31:55.456Z,9.80
2019-02-19T13:34:22.771Z,9.80
2019-02-19T13:36:50.277Z,9.70
2019-02-19T13:39:17.831Z,9.80
2019-02-19T13:41:45.453Z,9.80
2019-02-19T13:44:12.547Z,9.60
2019-02-19T13:46:39.938Z,9.60
2019-02-19T13:49:12.190Z,9.70
2019-02-19T13:51:36.263Z,9.70
2019-02-19T13:54:27.323Z,9.60
2019-02-19T13:56:54.925Z,9.60
2019-02-19T13:59:22.178Z,9.60
2019-02-19T14:01:50.185Z,9.70
2019-02-19T14:04:17.758Z,9.60
2019-02-19T14:06:45.408Z,9.50
2019-02-19T14:09:13.137Z,9.50
2019-02-19T14:11:40.453Z,9.60
2019-02-19T14:14:26.369Z,9.70
2019-02-19T14:17:00.301Z,9.80
2019-02-19T14:19:53.422Z,9.70
2019-02-19T14:22:34.172Z,9.80
2019-02-19T14:25:19.890Z,9.90
2019-02-19T14:28:05.461Z,10.00
2019-02-19T14:30:51.757Z,10.10
2019-02-19T14:33:38.104Z,10.30
2019-02-19T14:36:25.438Z,10.30
2019-02-19T14:39:12.032Z,10.30
2019-02-19T14:42:08.810Z,10.30
2019-02-19T14:44:54.941Z,10.40
2019-02-19T14:47:40.845Z,10.30
2019-02-19T14:50:31.407Z,10.40
2019-02-19T14:53:17.279Z,10.40
2019-02-19T14:55:53.489Z,10.50
2019-02-19T14:58:40.562Z,10.50
2019-02-19T15:01:28.600Z,10.60
2019-02-19T15:04:30.959Z,10.60
2019-02-19T15:07:27.570Z,10.60
2019-02-19T15:10:08.820Z,10.60
2019-02-19T15:12:52.922Z,10.60
2019-02-19T15:15:29.241Z,10.50
2019-02-19T15:18:14.335Z,10.50
2019-02-19T15:20:50.345Z,10.50
2019-02-19T15:23:50.206Z,10.50
2019-02-19T15:26:54.548Z,10.30
2019-02-19T15:29:56.924Z,10.30
2019-02-19T15:32:50.620Z,10.30
2019-02-19T15:35:37.561Z,10.40
2019-02-19T15:38:28.028Z,10.30
2019-02-19T15:41:15.742Z,10.30
2019-02-19T15:44:03.247Z,10.20
2019-02-19T15:47:08.996Z,10.10
2019-02-19T15:49:59.089Z,10.00
2019-02-19T15:52:34.157Z,10.10
2019-02-19T15:55:14.162Z,10.00
2019-02-19T15:58:09.697Z,10.00
2019-02-19T16:00:42.393Z,9.90
2019-02-19T16:03:30.586Z,9.90
2019-02-19T16:06:24.870Z,9.90
2019-02-19T16:09:11.240Z,9.90
2019-02-19T16:11:46.319Z,9.90
2019-02-19T16:14:42.679Z,9.80
2019-02-19T16:17:35.760Z,9.80
2019-02-19T16:20:22.649Z,9.70
2019-02-19T16:23:08.441Z,9.60
2019-02-19T16:25:52.619Z,9.60
2019-02-19T16:28:45.526Z,9.60
2019-02-19T16:31:28.580Z,9.50
2019-02-19T16:34:12.706Z,9.40
2019-02-19T16:36:49.949Z,9.30
2019-02-19T16:39:34.359Z,9.20
2019-02-19T16:42:34.315Z,9.20
2019-02-19T16:45:20.710Z,9.10
2019-02-19T16:48:14.681Z,9.00
2019-02-19T16:50:58.567Z,8.80
2019-02-19T16:53:55.036Z,8.70
2019-02-19T16:56:36.170Z,8.60
2019-02-19T16:59:29.621Z,8.50
2019-02-19T17:02:06.944Z,8.30
2019-02-19T17:04:47.938Z,8.20
2019-02-19T17:07:49.522Z,8.20
2019-02-19T17:10:26.704Z,8.00
2019-02-19T17:13:19.508Z,8.10
2019-02-19T17:16:00.485Z,8.00
2019-02-19T17:18:42.122Z,7.80
2019-02-19T17:21:20.545Z,7.80
2019-02-19T17:24:10.426Z,7.70
2019-02-19T17:27:03.691Z,7.50
2019-02-19T17:30:02.995Z,7.50
2019-02-19T17:32:38.902Z,7.30
2019-02-19T17:35:44.150Z,7.20
2019-02-19T17:38:32.682Z,6.90
2019-02-19T17:41:15.145Z,7.00
2019-02-19T17:44:01.992Z,7.00
2019-02-19T17:47:02.217Z,6.80
2019-02-19T17:49:39.058Z,6.80
2019-02-19T17:52:24.941Z,6.60
2019-02-19T17:55:06.642Z,6.60
2019-02-19T17:58:11.540Z,6.70
2019-02-19T18:01:10.425Z,6.50
2019-02-19T18:03:57.605Z,6.20
2019-02-19T18:07:00.372Z,6.20
2019-02-19T18:09:48.986Z,6.10
2019-02-19T18:12:42.882Z,6.00
2019-02-19T18:15:29.389Z,6.00
2019-02-19T18:18:15.262Z,6.00
2019-02-19T18:20:47.606Z,6.00
2019-02-19T18:23:12.830Z,6.00
2019-02-19T18:25:40.631Z,6.00
2019-02-19T18:28:08.163Z,6.00
2019-02-19T18:30:36.430Z,5.80
2019-02-19T18:33:04.604Z,5.70
2019-02-19T18:35:32.818Z,5.70
2019-02-19T18:37:59.983Z,5.80
2019-02-19T18:40:28.004Z,5.70
2019-02-19T18:42:55.479Z,5.70
2019-02-19T18:45:22.881Z,5.60
2019-02-19T18:47:50.439Z,5.60
2019-02-19T18:50:17.943Z,5.60
2019-02-19T18:52:45.674Z,5.40
2019-02-19T18:55:13.063Z,5.40
2019-02-19T18:57:41.366Z,5.30
2019-02-19T19:00:13.584Z,5.20
2019-02-19T19:02:41.087Z,5.30
2019-02-19T19:05:08.887Z,5.20
2019-02-19T19:07:43.568Z,5.20
2019-02-19T19:10:16.249Z,5.10
2019-02-19T19:12:44.759Z,4.90
2019-02-19T19:15:12.207Z,5.00
2019-02-19T19:17:40.120Z,5.00
2019-02-19T19:20:10.513Z,4.80
2019-02-19T19:22:40.200Z,4.80
2019-02-19T19:25:07.573Z,4.80
2019-02-19T19:27:34.875Z,4.70
2019-02-19T19:30:03.163Z,4.60
2019-02-19T19:32:31.174Z,4.70
2019-02-19T19:34:58.657Z,4.80
2019-02-19T19:37:26.142Z,4.90
2019-02-19T19:39:53.546Z,5.00
2019-02-19T19:42:21.789Z,5.20
2019-02-19T19:44:50.400Z,5.10
2019-02-19T19:47:18.305Z,5.10
2019-02-19T19:49:51.179Z,5.00
2019-02-19T19:52:18.911Z,5.00
2019-02-19T19:54:51.981Z,4.90
2019-02-19T19:57:24.188Z,4.90
2019-02-19T19:59:58.442Z,5.00
2019-02-19T20:02:26.924Z,4.80
2019-02-19T20:04:54.390Z,4.70
2019-02-19T20:07:25.552Z,4.70
2019-02-19T20:09:56.300Z,4.70
2019-02-19T20:12:24.261Z,4.60
2019-02-19T20:14:53.414Z,4.60
2019-02-19T20:17:27.252Z,4.70
2019-02-19T20:20:04.845Z,4.60
2019-02-19T20:22:32.785Z,4.60
2019-02-19T20:25:01.514Z,4.50
2019-02-19T20:27:35.449Z,4.50
2019-02-19T20:30:06.287Z,4.60
2019-02-19T20:32:37.528Z,4.60
2019-02-19T20:35:07.680Z,4.40
2019-02-19T20:37:36.132Z,4.40
2019-02-19T20:40:05.226Z,4.40
2019-02-19T20:42:32.670Z,4.30
2019-02-19T20:45:00.528Z,4.40
2019-02-19T20:47:28.023Z,4.20
2019-02-19T20:49:55.675Z,4.10
2019-02-19T20:52:23.942Z,4.00
2019-02-19T20:54:51.652Z,4.10
2019-02-19T20:57:20.347Z,4.00
2019-02-19T20:59:49.177Z,3.90
2019-02-19T21:02:23.440Z,3.70
2019-02-19T21:04:52.474Z,3.60
2019-02-19T21:07:20.031Z,3.50
2019-02-19T21:09:48.873Z,3.40
2019-02-19T21:12:16.046Z,3.40
2019-02-19T21:14:45.215Z,3.30
2019-02-19T21:17:13.973Z,3.30
2019-02-19T21:19:42.460Z,3.30
2019-02-19T21:22:10.222Z,3.30
2019-02-19T21:24:37.897Z,3.20
2019-02-19T21:27:05.264Z,3.10
2019-02-19T21:29:45.706Z,3.00
2019-02-19T21:32:13.311Z,3.00
2019-02-19T21:34:41.073Z,2.90
2019-02-19T21:37:09.213Z,2.80
2019-02-19T21:39:36.400Z,2.80
2019-02-19T21:42:05.761Z,2.70
2019-02-19T21:44:34.301Z,2.80
2019-02-19T21:47:01.931Z,2.80
2019-02-19T21:49:30.414Z,2.70
2019-02-19T21:52:02.932Z,2.70
2019-02-19T21:54:30.867Z,2.70
2019-02-19T21:56:58.406Z,2.80
2019-02-19T21:59:25.797Z,2.80
2019-02-19T22:02:00.141Z,2.80
2019-02-19T22:04:28.736Z,2.50
2019-02-19T22:06:56.692Z,2.40
2019-02-19T22:09:27.630Z,2.40
2019-02-19T22:11:54.899Z,2.40
2019-02-19T22:14:22.302Z,2.30
2019-02-19T22:16:59.849Z,2.40
2019-02-19T22:19:26.921Z,2.40
2019-02-19T22:22:11.196Z,2.50
2019-02-19T22:24:38.561Z,2.70
2019-02-19T22:27:07.288Z,2.80
2019-02-19T22:29:35.055Z,2.50
2019-02-19T22:32:04.469Z,2.40
2019-02-19T22:34:32.000Z,2.30
2019-02-19T22:36:59.722Z,2.40
2019-02-19T22:39:28.666Z,2.20
2019-02-19T22:41:56.392Z,2.10
2019-02-19T22:44:23.962Z,2.10
2019-02-19T22:46:51.577Z,2.00
2019-02-19T22:49:18.704Z,1.90
2019-02-19T22:51:46.012Z,1.80
2019-02-19T22:54:42.085Z,1.70
2019-02-19T22:57:09.788Z,1.70
2019-02-19T22:59:38.274Z,1.70
2019-02-19T23:02:24.480Z,1.70
2019-02-19T23:04:52.005Z,1.70
2019-02-19T23:07:19.247Z,1.70
2019-02-19T23:09:46.596Z,1.60
2019-02-19T23:12:14.538Z,1.90
2019-02-19T23:14:42.063Z,2.00
2019-02-19T23:17:09.733Z,1.90
2019-02-19T23:19:37.336Z,1.80
2019-02-19T23:22:04.854Z,1.60
2019-02-19T23:24:32.273Z,1.50
2019-02-19T23:27:00.074Z,1.50
2019-02-19T23:29:27.206Z,1.50
2019-02-19T23:31:54.798Z,1.50
2019-02-19T23:34:22.776Z,1.40
2019-02-19T23:37:10.139Z,1.40
2019-02-19T23:39:43.635Z,1.30
2019-02-19T23:42:07.514Z,1.30
2019-02-19T23:44:36.003Z,1.20
2019-02-19T23:47:03.474Z,1.10
2019-02-19T23:49:31.386Z,1.10
2019-02-19T23:51:59.458Z,1.20
2019-02-19T23:54:26.697Z,1.20
2019-02-19T23:56:53.937Z,1.20
2019-02-19T23:59:21.368Z,1.30
